Gustavsfors, Sweden

2:02 PM CEST on August 24, 2016 (GMT +0200)
Via dei Giardini | | Change Station

Elev 452 ft 60.14 °N, 13.45 °E | Updated 4 minutes ago

Mostly Cloudy
Mostly Cloudy
66.0 °F
Feels Like 66.0 °F
N
1.9
Wind Variable Wind from SE
Gusts 7.5 mph

Today
High -- | Low -- °F
--% Chance of Precip.
Yesterday
High -- | Low -- °F
Precip. -- in
Pressure 30.27 in
Visibility 6.2 miles
Clouds Mostly Cloudy 2200 ft
Dew Point 59 °F
Humidity 78%
Rainfall 0.00 in
Snow Depth Not available.
5:40 AM 8:31 PM
Waning Gibbous, 57% visible
METAR ESOK 241150Z 18012KT 9999 BKN022 17/13 Q1025
Pressure 30.27 in
Visibility 6.2 miles
Clouds Mostly Cloudy 2200 ft
Dew Point 59 °F
Humidity 78%
Rainfall 0.00 in
Snow Depth Not available.
5:40 AM 8:31 PM
Waning Gibbous, 57% visible
METAR ESOK 241150Z 18012KT 9999 BKN022 17/13 Q1025

10-Day Weather Forecast

×

Almanac

Astronomy

Aug. 24, 2016 Rise Set
Actual Time
Civil Twilight
Nautical Twilight
Astronomical Twilight
Moon
Length of Visible Light
Length of Day
Tomorrow will be .
, % of the Moon is Illuminated

Today's Extremes

Country Highs Country Lows

Community

WunderPhotos

Upload Photos

1,934,572 photos uploaded!

WunderBlog® & News

Nearby

Air Quality

  Air Quality AQ Index Pollutant
Not available.

Snow Depth

Station Depth Elevation

Earthquake Activity

City Distance Mag. Time & Date
Minimum magnitude displayed is 2.5.

Coastal Water Temperatures

Place Temperature

Stations

Nearby Weather Stations

Station Location Temp. Windchill Dew Point Humidity Wind Precip. Elev Updated Type